Time;durP1;ratioP1;P1;durP2;ratioP2;P2;SDS_P1;SDS_P2;PMS_P1;PMS_P2;Temp;Humidity;BMP_temperature;BMP_pressure;BME280_temperature;BME280_humidity;BME280_pressure;Samples;Min_cycle;Max_cycle;Signal;HPM_P1;HPM_P2
2022/05/10 00:01:35;;;;;;;8.07;7.20;;;15.00;99.90;;;;;;5053288;28;20242;-41
2022/05/10 00:04:02;;;;;;;8.67;7.20;;;15.00;99.90;;;;;;5053206;28;20183;-37
2022/05/10 00:06:34;;;;;;;8.47;7.57;;;14.90;99.90;;;;;;5052861;28;20172;-40
2022/05/10 00:09:00;;;;;;;9.50;7.40;;;14.90;99.90;;;;;;5053300;28;20587;-40
2022/05/10 00:11:25;;;;;;;10.03;7.03;;;14.90;99.90;;;;;;5052909;28;20259;-39
2022/05/10 00:13:51;;;;;;;7.80;6.80;;;14.90;99.90;;;;;;5054486;28;20264;-40
2022/05/10 00:16:18;;;;;;;9.70;7.23;;;14.80;99.90;;;;;;5057206;28;20194;-39
2022/05/10 00:18:45;;;;;;;10.43;7.53;;;14.80;99.90;;;;;;5056814;28;20200;-40
2022/05/10 00:21:13;;;;;;;7.63;6.83;;;14.80;99.90;;;;;;5055543;28;20195;-39
2022/05/10 00:23:38;;;;;;;9.57;7.80;;;14.70;99.90;;;;;;5056999;28;20180;-37
2022/05/10 00:26:04;;;;;;;8.97;7.47;;;14.70;99.90;;;;;;5057016;28;20181;-41
2022/05/10 00:28:30;;;;;;;7.77;6.97;;;14.70;99.90;;;;;;5055353;28;20200;-40
2022/05/10 00:30:55;;;;;;;10.20;7.60;;;14.60;99.90;;;;;;5056935;28;20176;-40
2022/05/10 00:33:31;;;;;;;9.57;6.93;;;14.60;99.90;;;;;;5055359;28;20181;-41
2022/05/10 00:35:58;;;;;;;7.73;6.93;;;14.50;99.90;;;;;;5056787;28;20195;-40
2022/05/10 00:38:38;;;;;;;11.07;7.87;;;14.50;99.90;;;;;;5055110;28;20212;-42
2022/05/10 00:41:36;;;;;;;9.33;8.13;;;14.40;99.90;;;;;;5056896;28;20164;-40
2022/05/10 00:44:12;;;;;;;9.23;7.97;;;14.40;99.90;;;;;;5055310;28;20180;-41
2022/05/10 00:46:51;;;;;;;8.00;7.20;;;14.30;99.90;;;;;;5056576;28;20560;-41
2022/05/10 00:49:29;;;;;;;9.03;8.13;;;14.30;99.90;;;;;;5056459;28;20156;-40
2022/05/10 00:52:17;;;;;;;8.60;7.80;;;14.20;99.90;;;;;;5056965;28;20160;-44
2022/05/10 00:55:05;;;;;;;13.87;8.30;;;14.20;99.90;;;;;;5057205;28;20211;-43
2022/05/10 00:57:34;;;;;;;8.17;7.37;;;14.20;99.90;;;;;;5056408;28;20195;-42
2022/05/10 01:00:17;;;;;;;9.23;7.53;;;14.20;99.90;;;;;;5056532;28;20608;-40
2022/05/10 01:02:52;;;;;;;9.17;7.60;;;14.10;99.90;;;;;;5056476;28;20164;-40
2022/05/10 01:05:43;;;;;;;9.63;7.67;;;14.10;99.90;;;;;;5056281;28;20242;-41
2022/05/10 01:08:31;;;;;;;10.07;7.40;;;14.10;99.90;;;;;;5045649;28;20208;-41
2022/05/10 01:11:05;;;;;;;8.43;7.53;;;14.00;99.90;;;;;;5056110;28;20168;-40
2022/05/10 01:13:53;;;;;;;7.97;6.57;;;14.00;99.90;;;;;;5056260;28;20176;-39
2022/05/10 01:16:21;;;;;;;9.23;7.33;;;13.90;99.90;;;;;;5055892;28;20199;-39
2022/05/10 01:18:48;;;;;;;7.10;6.40;;;13.90;99.90;;;;;;5055919;28;20243;-42
2022/05/10 01:21:32;;;;;;;9.10;7.57;;;13.90;99.90;;;;;;5055850;28;20180;-42
2022/05/10 01:24:21;;;;;;;8.47;6.73;;;13.80;99.90;;;;;;5056076;28;20178;-40
2022/05/10 01:27:00;;;;;;;9.40;7.37;;;13.80;99.90;;;;;;5056198;28;20204;-41
2022/05/10 01:29:32;;;;;;;11.50;7.13;;;13.80;99.90;;;;;;5056233;28;20535;-41
2022/05/10 01:34:49;;;;;;;9.77;6.87;;;13.70;99.90;;;;;;5055824;28;20238;-42
2022/05/10 01:37:20;;;;;;;9.33;7.03;;;13.60;99.90;;;;;;5056061;28;20200;-40
2022/05/10 01:40:00;;;;;;;8.27;7.40;;;13.70;99.90;;;;;;5055951;28;20199;-42
2022/05/10 01:42:30;;;;;;;9.60;6.77;;;13.60;99.90;;;;;;5055835;28;20180;-41
2022/05/10 01:44:59;;;;;;;9.57;7.33;;;13.60;99.90;;;;;;5056037;28;20172;-41
2022/05/10 01:47:36;;;;;;;11.40;7.93;;;13.50;99.90;;;;;;5056690;28;20253;-42
2022/05/10 01:50:25;;;;;;;7.80;7.00;;;13.50;99.90;;;;;;5057669;28;20571;-40
2022/05/10 01:53:01;;;;;;;15.93;6.80;;;13.50;99.90;;;;;;5056435;28;20161;-41
2022/05/10 01:55:40;;;;;;;8.23;7.30;;;13.40;99.90;;;;;;5054256;28;20200;-38
2022/05/10 01:58:10;;;;;;;10.47;7.33;;;13.30;99.90;;;;;;5055484;28;20196;-40
2022/05/10 02:00:38;;;;;;;8.93;6.83;;;13.40;99.90;;;;;;5055451;28;20562;-41
2022/05/10 02:03:22;;;;;;;10.53;7.77;;;13.40;99.90;;;;;;5055477;28;20172;-41
2022/05/10 02:06:07;;;;;;;9.17;7.03;;;13.30;99.90;;;;;;5055311;28;20523;-39
2022/05/10 02:08:56;;;;;;;8.83;6.93;;;13.30;99.90;;;;;;5055291;28;20207;-40
2022/05/10 02:11:23;;;;;;;12.17;7.47;;;13.30;99.90;;;;;;5055022;28;20168;-40
2022/05/10 02:14:08;;;;;;;8.23;6.80;;;13.20;99.90;;;;;;5055088;28;20206;-41
2022/05/10 02:16:46;;;;;;;8.50;7.47;;;13.20;99.90;;;;;;5055844;28;20168;-42
2022/05/10 02:19:41;;;;;;;9.13;7.07;;;13.20;99.90;;;;;;5053771;28;20263;-41
2022/05/10 02:22:12;;;;;;;10.90;7.13;;;13.10;99.90;;;;;;5054960;28;20263;-41
2022/05/10 02:24:58;;;;;;;8.73;7.43;;;13.20;99.90;;;;;;5054870;28;20171;-39
2022/05/10 02:27:38;;;;;;;10.20;7.93;;;13.10;99.90;;;;;;5054626;28;20188;-39
2022/05/10 02:30:10;;;;;;;10.63;7.47;;;13.10;99.90;;;;;;5054736;28;20183;-38
2022/05/10 02:33:07;;;;;;;10.50;7.33;;;13.10;99.90;;;;;;5054832;28;20184;-42
2022/05/10 02:35:51;;;;;;;9.50;6.57;;;13.10;99.90;;;;;;5054449;28;20208;-41
2022/05/10 02:38:20;;;;;;;8.63;6.90;;;13.10;99.90;;;;;;5054414;28;20706;-41
2022/05/10 02:40:46;;;;;;;10.13;6.90;;;13.00;99.90;;;;;;5054654;28;20651;-39
2022/05/10 02:43:17;;;;;;;8.47;6.40;;;13.00;99.90;;;;;;5054316;28;20239;-39
2022/05/10 02:45:43;;;;;;;9.57;6.57;;;13.00;99.90;;;;;;5054745;28;20248;-39
2022/05/10 02:48:26;;;;;;;9.47;7.10;;;13.00;99.90;;;;;;5054271;28;20196;-42
2022/05/10 02:50:51;;;;;;;9.47;7.77;;;13.00;99.90;;;;;;5054245;28;20175;-42
2022/05/10 02:53:17;;;;;;;13.87;7.17;;;12.90;99.90;;;;;;5054241;28;20176;-41
2022/05/10 02:56:01;;;;;;;11.07;7.37;;;12.90;99.90;;;;;;5054172;28;20200;-41
2022/05/10 02:58:37;;;;;;;15.13;6.73;;;12.90;99.90;;;;;;5054499;28;20235;-41
2022/05/10 03:01:22;;;;;;;12.73;7.23;;;12.90;99.90;;;;;;5054116;28;20176;-41
2022/05/10 03:03:48;;;;;;;8.33;7.07;;;12.80;99.90;;;;;;5053944;28;20293;-41
2022/05/10 03:06:17;;;;;;;11.17;6.60;;;12.80;99.90;;;;;;5054182;28;20264;-41
2022/05/10 03:08:44;;;;;;;12.57;7.27;;;12.80;99.90;;;;;;5054316;28;20199;-41
2022/05/10 03:11:09;;;;;;;10.80;7.37;;;12.80;99.90;;;;;;5053996;28;20188;-40
2022/05/10 03:13:35;;;;;;;8.93;7.10;;;12.70;99.90;;;;;;5054448;28;20187;-41
2022/05/10 03:16:01;;;;;;;9.10;7.00;;;12.70;99.90;;;;;;5053863;28;20670;-42
2022/05/10 03:18:27;;;;;;;11.57;7.37;;;12.70;99.90;;;;;;5053501;28;20299;-41
2022/05/10 03:20:53;;;;;;;8.87;7.37;;;12.60;99.90;;;;;;5054133;28;20207;-39
2022/05/10 03:23:18;;;;;;;9.97;7.33;;;12.60;99.90;;;;;;5053890;28;20298;-41
2022/05/10 03:25:45;;;;;;;11.53;6.23;;;12.50;99.90;;;;;;5053693;28;20181;-38
2022/05/10 03:28:10;;;;;;;9.60;7.23;;;12.60;99.90;;;;;;5053789;28;20559;-41
2022/05/10 03:30:36;;;;;;;9.17;7.07;;;12.60;99.90;;;;;;5053743;28;20222;-41
2022/05/10 03:33:02;;;;;;;11.70;7.37;;;12.60;99.90;;;;;;5053550;28;20176;-41
2022/05/10 03:35:28;;;;;;;9.43;6.87;;;12.60;99.90;;;;;;5053454;28;20620;-41
2022/05/10 03:37:53;;;;;;;8.73;6.50;;;12.60;99.90;;;;;;5053398;28;20699;-41
2022/05/10 03:40:19;;;;;;;10.27;7.30;;;12.50;99.90;;;;;;5053616;28;20200;-41
2022/05/10 03:42:51;;;;;;;11.67;6.90;;;12.50;99.90;;;;;;5053457;28;20212;-41
2022/05/10 03:45:18;;;;;;;9.07;6.90;;;12.50;99.90;;;;;;5053443;28;20168;-40
2022/05/10 03:47:46;;;;;;;12.97;6.63;;;12.50;99.90;;;;;;5052600;28;20737;-40
2022/05/10 03:50:12;;;;;;;9.53;6.80;;;12.50;99.90;;;;;;5053573;28;20694;-41
2022/05/10 03:52:40;;;;;;;8.23;6.13;;;12.40;99.90;;;;;;5053845;28;20180;-41
2022/05/10 03:55:08;;;;;;;9.20;6.80;;;12.40;99.90;;;;;;5053419;28;20287;-41
2022/05/10 03:57:33;;;;;;;9.80;6.53;;;12.40;99.90;;;;;;5053313;28;20568;-41
2022/05/10 03:59:59;;;;;;;10.57;6.77;;;12.30;99.90;;;;;;5052565;28;20164;-39
2022/05/10 04:02:25;;;;;;;12.67;7.10;;;12.30;99.90;;;;;;5053976;28;20194;-41
2022/05/10 04:04:50;;;;;;;12.13;6.97;;;12.30;99.90;;;;;;5053538;28;20185;-40
2022/05/10 04:07:16;;;;;;;9.77;7.00;;;12.20;99.90;;;;;;5053333;28;20287;-42
2022/05/10 04:09:42;;;;;;;7.43;6.70;;;12.20;99.90;;;;;;5053631;28;20187;-42
2022/05/10 04:12:08;;;;;;;9.43;6.67;;;12.20;99.90;;;;;;5053580;28;20184;-41
2022/05/10 04:14:33;;;;;;;8.10;6.93;;;12.10;99.90;;;;;;5054945;28;20554;-42
2022/05/10 04:16:59;;;;;;;10.33;6.77;;;12.10;99.90;;;;;;5053507;28;20196;-41
2022/05/10 04:19:25;;;;;;;9.23;6.53;;;12.10;99.90;;;;;;5053623;28;20179;-41
2022/05/10 04:21:51;;;;;;;8.90;6.40;;;12.10;99.90;;;;;;5053634;28;20750;-39
2022/05/10 04:24:17;;;;;;;9.70;6.50;;;12.10;99.90;;;;;;5053379;28;20168;-40
2022/05/10 04:26:43;;;;;;;8.93;7.00;;;12.10;99.90;;;;;;5053345;28;20199;-42
2022/05/10 04:29:08;;;;;;;10.40;6.57;;;12.10;99.90;;;;;;5053104;28;20185;-41
2022/05/10 04:31:34;;;;;;;11.83;6.33;;;12.20;99.90;;;;;;5052925;28;20173;-40
2022/05/10 04:34:00;;;;;;;10.80;6.77;;;12.10;99.90;;;;;;5053247;28;20663;-41
2022/05/10 04:36:25;;;;;;;8.00;6.37;;;12.20;99.90;;;;;;5053315;28;20260;-41
2022/05/10 04:38:52;;;;;;;10.03;6.27;;;12.10;99.90;;;;;;5051680;28;20686;-41
2022/05/10 04:41:27;;;;;;;10.90;7.00;;;12.20;99.90;;;;;;5054189;28;20187;-40
2022/05/10 04:44:07;;;;;;;9.13;6.40;;;12.20;99.90;;;;;;5053520;28;20229;-42
2022/05/10 04:46:38;;;;;;;9.23;7.30;;;12.20;99.90;;;;;;5051677;28;20207;-40
2022/05/10 04:49:05;;;;;;;10.00;6.87;;;12.20;99.90;;;;;;5053068;28;20164;-41
2022/05/10 04:51:31;;;;;;;13.47;7.40;;;12.20;99.90;;;;;;5053676;28;20189;-41
2022/05/10 04:53:57;;;;;;;9.67;7.00;;;12.20;99.90;;;;;;5053695;28;20182;-41
2022/05/10 04:56:23;;;;;;;12.60;6.93;;;12.20;99.90;;;;;;5052981;28;20204;-41
2022/05/10 04:58:51;;;;;;;15.30;6.97;;;12.20;99.90;;;;;;5053490;28;20194;-40
2022/05/10 05:01:18;;;;;;;9.97;7.70;;;12.30;99.90;;;;;;5056732;28;20184;-40
2022/05/10 05:03:46;;;;;;;10.20;7.10;;;12.30;99.90;;;;;;5056577;28;20542;-40
2022/05/10 05:06:12;;;;;;;8.93;6.70;;;12.40;99.90;;;;;;5056571;28;20609;-40
2022/05/10 05:08:38;;;;;;;13.30;6.50;;;12.30;99.90;;;;;;5056520;28;20208;-42
2022/05/10 05:11:04;;;;;;;9.57;7.10;;;12.40;99.90;;;;;;5056032;28;20199;-40
2022/05/10 05:13:30;;;;;;;11.40;6.97;;;12.50;99.90;;;;;;5056894;28;20190;-44
2022/05/10 05:15:56;;;;;;;10.50;7.23;;;12.50;99.90;;;;;;5059329;28;20211;-43
2022/05/10 05:18:22;;;;;;;12.93;7.70;;;12.50;99.90;;;;;;5058884;28;20210;-45
2022/05/10 05:20:48;;;;;;;13.20;8.27;;;12.60;99.90;;;;;;5058739;28;20182;-44
2022/05/10 05:23:16;;;;;;;9.97;7.90;;;12.70;99.90;;;;;;5059324;28;20176;-43
2022/05/10 05:25:42;;;;;;;12.20;8.43;;;12.70;99.90;;;;;;5058820;28;20644;-45
2022/05/10 05:28:09;;;;;;;11.43;8.53;;;12.80;99.90;;;;;;5058355;28;20257;-43
2022/05/10 05:30:35;;;;;;;14.90;8.80;;;12.80;99.90;;;;;;5058568;28;20598;-46
2022/05/10 05:33:02;;;;;;;11.80;8.37;;;12.90;99.90;;;;;;5058076;28;20547;-41
2022/05/10 05:35:27;;;;;;;10.93;8.63;;;12.90;99.90;;;;;;5055595;28;20567;-39
2022/05/10 05:37:54;;;;;;;13.73;8.90;;;13.00;99.90;;;;;;5055438;28;20208;-38
2022/05/10 05:40:21;;;;;;;16.67;9.30;;;13.00;99.90;;;;;;5055898;28;20165;-42
2022/05/10 05:42:48;;;;;;;11.63;9.10;;;13.20;99.90;;;;;;5055793;28;20180;-41
2022/05/10 05:45:16;;;;;;;13.37;8.57;;;13.30;99.90;;;;;;5055723;28;20176;-39
2022/05/10 05:47:42;;;;;;;12.10;9.60;;;13.40;99.90;;;;;;5055714;28;20656;-40
2022/05/10 05:50:11;;;;;;;13.80;9.17;;;13.50;99.90;;;;;;5056802;28;20188;-40
2022/05/10 05:52:37;;;;;;;14.03;8.97;;;13.70;99.90;;;;;;5055547;28;20176;-39
2022/05/10 05:55:03;;;;;;;15.50;9.60;;;13.80;99.90;;;;;;5055560;28;20225;-40
2022/05/10 05:57:29;;;;;;;16.40;9.27;;;13.90;99.90;;;;;;5055315;28;20195;-40
2022/05/10 05:59:58;;;;;;;13.40;9.20;;;14.00;99.90;;;;;;5055275;28;20180;-40
2022/05/10 06:02:24;;;;;;;12.80;9.47;;;14.20;99.90;;;;;;5055571;28;20191;-42
2022/05/10 06:04:51;;;;;;;19.67;9.83;;;14.40;99.90;;;;;;5055491;28;20177;-41
2022/05/10 06:07:16;;;;;;;23.57;10.20;;;14.60;99.90;;;;;;5054749;28;20200;-39
2022/05/10 06:09:43;;;;;;;13.53;10.90;;;14.70;99.90;;;;;;5055572;28;20283;-37
2022/05/10 06:12:11;;;;;;;19.70;10.40;;;14.90;99.90;;;;;;5054375;28;20180;-38
2022/05/10 06:14:38;;;;;;;14.67;9.63;;;15.00;99.90;;;;;;5055183;28;20262;-40
2022/05/10 06:17:05;;;;;;;14.07;9.53;;;15.30;99.90;;;;;;5056046;28;20230;-42
2022/05/10 06:19:32;;;;;;;14.33;9.80;;;15.50;99.90;;;;;;5055213;28;20595;-41
2022/05/10 06:21:58;;;;;;;13.93;9.50;;;15.60;99.90;;;;;;5055274;28;20180;-41
2022/05/10 06:24:24;;;;;;;18.43;9.57;;;15.80;99.90;;;;;;5055721;28;20176;-39
2022/05/10 06:26:51;;;;;;;12.17;9.57;;;16.00;99.90;;;;;;5055201;28;20668;-41
2022/05/10 06:29:17;;;;;;;17.83;8.90;;;16.20;99.90;;;;;;5055318;28;20180;-42
2022/05/10 06:31:44;;;;;;;13.53;8.60;;;16.40;99.90;;;;;;5055863;28;20187;-40
2022/05/10 06:34:10;;;;;;;11.40;8.53;;;16.70;99.90;;;;;;5054786;28;20534;-40
2022/05/10 06:36:36;;;;;;;15.20;8.40;;;16.90;99.90;;;;;;5054594;28;20176;-40
2022/05/10 06:39:02;;;;;;;12.03;8.87;;;17.20;99.90;;;;;;5054647;28;20198;-42
2022/05/10 06:41:31;;;;;;;15.67;9.47;;;17.50;99.90;;;;;;5054628;28;20538;-39
2022/05/10 06:43:57;;;;;;;16.23;9.17;;;17.80;99.90;;;;;;5054811;28;20180;-42
2022/05/10 06:46:23;;;;;;;11.63;8.13;;;18.10;99.90;;;;;;5054753;28;20547;-39
2022/05/10 06:48:49;;;;;;;12.20;7.63;;;18.40;99.90;;;;;;5054355;28;20183;-38
2022/05/10 06:51:18;;;;;;;12.80;7.73;;;18.80;99.90;;;;;;5054520;28;20180;-41
2022/05/10 06:53:44;;;;;;;15.00;8.20;;;19.20;99.90;;;;;;5054266;28;20180;-39
2022/05/10 06:56:10;;;;;;;10.73;7.43;;;19.50;99.90;;;;;;5054251;28;20196;-40
2022/05/10 06:58:36;;;;;;;9.93;7.43;;;19.80;99.90;;;;;;5052989;28;20203;-40
2022/05/10 07:01:04;;;;;;;12.23;6.60;;;20.10;99.90;;;;;;5054618;28;20188;-39
2022/05/10 07:03:32;;;;;;;12.50;6.93;;;20.30;99.90;;;;;;5054437;28;20187;-42
2022/05/10 07:06:01;;;;;;;7.90;5.57;;;20.50;99.90;;;;;;5054968;28;20259;-39
2022/05/10 07:08:27;;;;;;;7.87;5.27;;;20.70;99.90;;;;;;5054057;28;20199;-38
2022/05/10 07:10:53;;;;;;;9.97;5.83;;;20.80;99.90;;;;;;5054190;28;20172;-41
2022/05/10 07:13:21;;;;;;;6.43;5.77;;;20.80;99.90;;;;;;5054111;28;20180;-40
2022/05/10 07:15:47;;;;;;;9.70;6.10;;;20.80;99.90;;;;;;5054012;28;20204;-42
2022/05/10 07:18:13;;;;;;;7.93;5.37;;;20.90;99.90;;;;;;5052678;28;20218;-40
2022/05/10 07:20:40;;;;;;;9.90;5.33;;;21.00;99.90;;;;;;5053855;28;20680;-40
2022/05/10 07:23:07;;;;;;;6.10;4.97;;;21.10;99.90;;;;;;5053789;28;20176;-46
2022/05/10 07:25:32;;;;;;;7.93;5.20;;;21.20;99.90;;;;;;5054097;28;20188;-44
2022/05/10 07:27:58;;;;;;;7.60;5.10;;;21.20;99.90;;;;;;5053442;28;20265;-44
2022/05/10 07:30:26;;;;;;;9.60;5.00;;;21.20;99.90;;;;;;5053867;28;20259;-45
2022/05/10 07:32:52;;;;;;;7.23;4.27;;;21.30;99.90;;;;;;5053844;28;20249;-44
2022/05/10 07:36:23;;;;;;;7.13;4.00;;;21.40;99.90;;;;;;5053684;28;20299;-44
2022/05/10 07:38:14;;;;;;;8.17;4.10;;;21.50;99.90;;;;;;5053323;28;20228;-45
2022/05/10 07:40:40;;;;;;;6.13;4.03;;;21.50;99.90;;;;;;5053524;28;20609;-45
2022/05/10 07:43:06;;;;;;;5.43;4.10;;;21.50;99.90;;;;;;5053413;28;20200;-43
2022/05/10 07:45:33;;;;;;;5.60;4.43;;;21.60;99.90;;;;;;5053703;28;20222;-45
2022/05/10 07:47:59;;;;;;;7.50;4.80;;;21.80;99.90;;;;;;5053520;28;20286;-43
2022/05/10 07:50:28;;;;;;;10.23;4.93;;;22.00;99.90;;;;;;5053907;28;20222;-44
2022/05/10 07:52:54;;;;;;;6.03;3.93;;;22.30;99.90;;;;;;5052197;28;20188;-40
2022/05/10 07:55:19;;;;;;;7.03;4.10;;;22.50;99.90;;;;;;5053414;28;20656;-41
2022/05/10 07:57:45;;;;;;;5.13;3.97;;;22.70;99.90;;;;;;5053094;28;20631;-39
2022/05/10 08:00:14;;;;;;;5.13;3.60;;;22.70;99.90;;;;;;5053512;28;20181;-40
2022/05/10 08:02:44;;;;;;;7.37;3.60;;;22.90;99.90;;;;;;5053294;28;20535;-40
2022/05/10 08:05:11;;;;;;;8.30;3.73;;;23.00;99.90;;;;;;5053117;28;20263;-39
2022/05/10 08:07:36;;;;;;;7.30;3.60;;;23.10;99.90;;;;;;5053189;28;20671;-40
2022/05/10 08:10:04;;;;;;;4.53;3.67;;;23.30;99.90;;;;;;5053682;28;20728;-43
2022/05/10 08:12:30;;;;;;;5.20;3.50;;;23.40;99.90;;;;;;5053481;28;20267;-40
2022/05/10 08:14:55;;;;;;;5.87;3.37;;;23.70;99.90;;;;;;5053692;28;20231;-39
2022/05/10 08:17:21;;;;;;;4.27;3.57;;;23.80;99.90;;;;;;5053516;28;20249;-39
2022/05/10 08:19:49;;;;;;;4.10;2.83;;;24.00;99.90;;;;;;5053464;28;20279;-41
2022/05/10 08:22:14;;;;;;;3.27;2.90;;;24.20;99.90;;;;;;5053412;28;20254;-39
2022/05/10 08:24:40;;;;;;;4.13;2.80;;;24.30;99.90;;;;;;5053285;28;20180;-40
2022/05/10 08:27:05;;;;;;;3.80;2.80;;;24.50;99.90;;;;;;5052962;28;20571;-40
2022/05/10 08:29:31;;;;;;;5.90;3.00;;;24.60;99.90;;;;;;5053381;28;20259;-41
2022/05/10 08:31:58;;;;;;;4.23;2.67;;;24.60;99.90;;;;;;5053134;28;20191;-40
2022/05/10 08:34:24;;;;;;;4.77;2.50;;;24.70;99.90;;;;;;5053804;28;20726;-40
2022/05/10 08:36:49;;;;;;;4.50;2.90;;;24.80;99.90;;;;;;5057118;28;20200;-40
2022/05/10 08:39:15;;;;;;;2.90;2.60;;;24.80;99.90;;;;;;5056798;28;20200;-40
2022/05/10 08:41:52;;;;;;;4.97;2.57;;;24.70;99.90;;;;;;5056801;28;20241;-39
2022/05/10 08:44:22;;;;;;;4.83;2.90;;;24.70;99.90;;;;;;5057155;28;20593;-41
2022/05/10 08:46:53;;;;;;;4.13;2.80;;;24.70;99.90;;;;;;5056958;28;20204;-39
2022/05/10 08:49:36;;;;;;;2.90;2.40;;;24.60;99.90;;;;;;5056747;28;20176;-41
2022/05/10 08:52:03;;;;;;;3.10;2.67;;;24.60;99.90;;;;;;5056106;28;20176;-40
2022/05/10 08:54:30;;;;;;;2.83;2.37;;;24.60;99.90;;;;;;5056854;28;20541;-39
2022/05/10 08:57:19;;;;;;;3.40;2.47;;;24.50;99.90;;;;;;5057071;28;20211;-38
2022/05/10 09:00:04;;;;;;;3.53;2.70;;;24.60;99.90;;;;;;5056430;28;20184;-41
2022/05/10 09:02:42;;;;;;;3.20;2.50;;;24.60;99.90;;;;;;5056671;28;20255;-41
2022/05/10 09:05:33;;;;;;;5.00;2.40;;;24.50;99.90;;;;;;5056722;28;20175;-40
2022/05/10 09:08:20;;;;;;;5.93;2.50;;;24.50;99.90;;;;;;5053172;28;20265;-42
2022/05/10 09:11:00;;;;;;;2.87;2.50;;;24.60;99.90;;;;;;5056639;28;20234;-41
2022/05/10 09:13:26;;;;;;;3.80;2.30;;;24.70;99.90;;;;;;5056573;28;20172;-41
2022/05/10 09:15:56;;;;;;;3.30;2.57;;;24.70;99.90;;;;;;5056281;28;20215;-40
2022/05/10 09:18:26;;;;;;;2.97;2.57;;;24.80;99.90;;;;;;5055792;28;20303;-41
2022/05/10 09:21:14;;;;;;;5.10;2.60;;;24.90;99.90;;;;;;5056076;28;20181;-42
2022/05/10 09:23:57;;;;;;;5.10;2.87;;;24.90;99.90;;;;;;5056315;28;20184;-41
2022/05/10 09:26:30;;;;;;;3.07;2.60;;;24.90;99.90;;;;;;5054822;28;20176;-41
2022/05/10 09:29:04;;;;;;;3.00;2.53;;;25.00;99.90;;;;;;5056775;28;20172;-43
2022/05/10 09:37:25;;;;;;;3.63;2.70;;;25.30;99.90;;;;;;5056305;28;20227;-43
2022/05/10 09:40:19;;;;;;;5.47;2.60;;;25.50;99.90;;;;;;5055592;28;20675;-40
2022/05/10 09:42:49;;;;;;;3.00;2.63;;;25.80;99.90;;;;;;5056235;28;20210;-40
2022/05/10 09:45:17;;;;;;;5.33;2.73;;;26.00;99.90;;;;;;5055318;28;20188;-40
2022/05/10 09:48:08;;;;;;;4.63;2.50;;;26.30;99.90;;;;;;5055537;28;20210;-43
2022/05/10 09:50:35;;;;;;;4.00;2.67;;;26.40;99.90;;;;;;5055742;28;20254;-41
2022/05/10 09:53:08;;;;;;;5.17;2.67;;;26.50;99.90;;;;;;5055310;28;20176;-39
2022/05/10 09:55:34;;;;;;;3.77;2.33;;;26.50;99.90;;;;;;5055359;28;20200;-40
2022/05/10 09:58:14;;;;;;;3.27;2.63;;;26.40;99.90;;;;;;5053953;28;20208;-41
2022/05/10 10:00:45;;;;;;;3.00;2.70;;;26.40;99.90;;;;;;5055562;28;20513;-40
2022/05/10 10:03:32;;;;;;;2.97;2.67;;;26.40;99.90;;;;;;5055496;28;20164;-42
2022/05/10 10:06:16;;;;;;;2.53;2.17;;;26.30;99.90;;;;;;5055353;28;20251;-42
2022/05/10 10:08:48;;;;;;;3.23;2.33;;;26.40;99.90;;;;;;5055537;28;20199;-41
2022/05/10 10:11:34;;;;;;;3.83;2.63;;;26.40;99.90;;;;;;5055094;28;20165;-41
2022/05/10 10:14:09;;;;;;;3.10;2.40;;;26.40;99.90;;;;;;5054877;28;20176;-39
2022/05/10 10:16:35;;;;;;;3.20;2.50;;;26.40;99.90;;;;;;5054771;28;20188;-42
2022/05/10 10:19:29;;;;;;;5.10;2.40;;;26.40;99.90;;;;;;5054776;28;20541;-43
2022/05/10 10:22:04;;;;;;;2.47;2.13;;;26.40;99.90;;;;;;5053505;28;20200;-42
2022/05/10 10:24:48;;;;;;;2.73;2.23;;;26.30;99.90;;;;;;5055039;28;20246;-40
2022/05/10 10:27:40;;;;;;;4.50;2.80;;;26.30;99.90;;;;;;5054555;28;20243;-40
2022/05/10 10:30:18;;;;;;;3.30;2.60;;;26.10;99.90;;;;;;5050818;28;20208;-42
2022/05/10 10:32:51;;;;;;;6.63;2.83;;;26.00;99.90;;;;;;5054508;28;20605;-39
2022/05/10 10:35:48;;;;;;;3.70;2.50;;;26.00;99.90;;;;;;5054717;28;20223;-41
2022/05/10 10:38:20;;;;;;;3.20;2.67;;;26.00;99.90;;;;;;5034836;28;20231;-38
2022/05/10 10:41:01;;;;;;;4.10;2.57;;;26.00;99.90;;;;;;5054274;28;20275;-41
2022/05/10 10:43:50;;;;;;;6.33;2.57;;;26.00;99.90;;;;;;5054410;28;20530;-42
2022/05/10 10:46:25;;;;;;;4.10;2.83;;;26.10;99.90;;;;;;5054593;28;20175;-39
2022/05/10 10:48:56;;;;;;;2.50;2.30;;;26.20;99.90;;;;;;5054556;28;20179;-39
2022/05/10 10:51:29;;;;;;;2.57;2.37;;;26.30;99.90;;;;;;5054191;28;20187;-40
2022/05/10 10:53:55;;;;;;;5.10;2.60;;;26.40;99.90;;;;;;5054039;28;20179;-41
2022/05/10 10:56:57;;;;;;;2.70;2.50;;;26.60;99.90;;;;;;5054371;28;20243;-41
2022/05/10 10:59:48;;;;;;;2.40;2.10;;;26.70;99.90;;;;;;5054609;28;20168;-40
2022/05/10 11:02:47;;;;;;;6.13;2.63;;;26.80;99.90;;;;;;5054077;28;20176;-39
2022/05/10 11:05:49;;;;;;;4.47;2.63;;;26.80;99.90;;;;;;5054018;28;20259;-40
2022/05/10 11:08:44;;;;;;;4.17;2.63;;;26.80;99.90;;;;;;5045181;28;20216;-43
2022/05/10 11:11:36;;;;;;;2.70;2.50;;;26.80;99.90;;;;;;5054174;28;20179;-41
2022/05/10 11:14:16;;;;;;;6.83;2.77;;;26.70;99.90;;;;;;5053871;28;20203;-41
2022/05/10 11:17:09;;;;;;;3.97;2.83;;;26.80;99.90;;;;;;5053941;28;20176;-40
2022/05/10 11:20:03;;;;;;;7.13;2.73;;;26.80;99.90;;;;;;5053710;28;20165;-40
2022/05/10 11:22:41;;;;;;;3.63;2.73;;;26.90;99.90;;;;;;5053689;28;20169;-39
2022/05/10 11:25:19;;;;;;;2.60;2.40;;;26.90;99.90;;;;;;5053567;28;20649;-42
2022/05/10 11:27:45;;;;;;;4.17;2.87;;;26.90;99.90;;;;;;5053780;28;20211;-40
2022/05/10 11:30:18;;;;;;;3.70;2.90;;;26.90;99.90;;;;;;5054155;28;20184;-39
2022/05/10 11:33:07;;;;;;;4.83;3.00;;;26.80;99.90;;;;;;5054116;28;20262;-41
2022/05/10 11:35:45;;;;;;;3.90;3.13;;;26.80;99.90;;;;;;5053441;28;20191;-41
2022/05/10 11:38:23;;;;;;;3.43;2.80;;;26.90;99.90;;;;;;5053587;28;20211;-40
2022/05/10 11:41:15;;;;;;;4.33;3.20;;;27.00;99.90;;;;;;5053996;28;20229;-43
2022/05/10 11:43:55;;;;;;;4.27;3.20;;;26.90;99.90;;;;;;5053765;28;20562;-42
2022/05/10 11:47:01;;;;;;;4.93;2.53;;;27.00;99.90;;;;;;5053301;28;20168;-40
2022/05/10 11:49:48;;;;;;;4.30;2.93;;;27.10;99.90;;;;;;5053462;28;20689;-38
2022/05/10 11:52:34;;;;;;;5.33;2.70;;;27.20;99.50;;;;;;5053275;28;20176;-41
2022/05/10 11:55:32;;;;;;;5.13;2.87;;;27.40;99.90;;;;;;5053543;28;20227;-40
2022/05/10 11:58:03;;;;;;;5.53;3.10;;;27.40;99.90;;;;;;5053934;28;20199;-43
2022/05/10 12:00:31;;;;;;;6.70;3.00;;;27.40;99.90;;;;;;5053452;28;20195;-43
2022/05/10 12:02:59;;;;;;;7.27;4.20;;;27.60;99.90;;;;;;5053370;28;20203;-43
2022/05/10 12:05:36;;;;;;;6.83;3.20;;;27.70;99.90;;;;;;5053107;28;20180;-43
2022/05/10 12:08:25;;;;;;;6.23;3.43;;;27.80;99.90;;;;;;5053242;28;20207;-41
2022/05/10 12:10:51;;;;;;;3.47;2.87;;;27.80;99.90;;;;;;5056474;28;20176;-41
2022/05/10 12:22:11;;;;;;;5.53;3.10;;;28.10;99.90;;;;;;5057661;28;20210;-42
2022/05/10 12:24:44;;;;;;;5.57;2.77;;;28.20;99.90;;;;;;5056933;28;20179;-43
2022/05/10 12:27:12;;;;;;;4.70;2.80;;;28.20;99.90;;;;;;5057122;28;20192;-42
2022/05/10 12:29:38;;;;;;;2.50;2.23;;;28.20;99.90;;;;;;5056904;28;20172;-41
2022/05/10 12:32:21;;;;;;;4.82;2.83;;;28.20;99.90;;;;;;5057118;28;20179;-42
2022/05/10 12:34:57;;;;;;;4.93;2.83;;;28.30;99.90;;;;;;5056743;28;20652;-42
2022/05/10 12:37:29;;;;;;;2.90;2.65;;;28.40;99.70;;;;;;5056949;28;20249;-43
2022/05/10 12:40:14;;;;;;;5.07;2.72;;;28.50;98.30;;;;;;5057386;28;20173;-42
2022/05/10 12:43:19;;;;;;;4.65;2.88;;;28.40;99.90;;;;;;5057046;28;20561;-40
2022/05/10 12:45:47;;;;;;;3.78;2.90;;;28.50;99.90;;;;;;5056804;28;20248;-43
2022/05/10 12:48:21;;;;;;;3.00;2.70;;;28.60;99.90;;;;;;5056885;28;20227;-41
2022/05/10 12:51:07;;;;;;;3.47;2.80;;;28.40;99.90;;;;;;5056747;28;20175;-41
2022/05/10 12:53:41;;;;;;;5.35;3.03;;;28.30;99.10;;;;;;5056845;28;20515;-42
2022/05/10 12:56:14;;;;;;;4.93;3.20;;;28.20;99.60;;;;;;5056985;28;20210;-41
2022/05/10 12:58:47;;;;;;;5.72;2.85;;;28.20;98.50;;;;;;5056395;28;20188;-41
2022/05/10 13:01:16;;;;;;;4.05;3.03;;;28.30;99.30;;;;;;5055098;28;20259;-41
2022/05/10 13:03:51;;;;;;;3.45;2.78;;;28.30;99.90;;;;;;5056592;28;20601;-42
2022/05/10 13:06:52;;;;;;;5.15;2.90;;;28.50;99.80;;;;;;5056618;28;20171;-41
2022/05/10 13:09:35;;;;;;;4.25;2.65;;;28.40;99.90;;;;;;5056172;28;20247;-43
2022/05/10 13:12:09;;;;;;;3.50;2.33;;;28.40;99.90;;;;;;5056446;28;20164;-43
2022/05/10 13:14:44;;;;;;;3.15;2.78;;;28.30;99.90;;;;;;5056532;28;20615;-42
2022/05/10 13:17:12;;;;;;;3.35;2.40;;;28.30;99.90;;;;;;5054783;28;20669;-42
2022/05/10 13:19:43;;;;;;;2.90;2.55;;;28.40;98.80;;;;;;5056216;28;20207;-41
2022/05/10 13:22:12;;;;;;;3.00;2.70;;;28.40;98.00;;;;;;5056003;28;20226;-40
2022/05/10 13:24:38;;;;;;;5.90;2.88;;;28.50;98.20;;;;;;5056107;28;20184;-41
2022/05/10 13:27:05;;;;;;;3.85;2.25;;;28.40;98.90;;;;;;5055759;28;20199;-42
2022/05/10 13:29:50;;;;;;;3.20;2.92;;;28.40;97.50;;;;;;5056249;28;20180;-41